Esmeralda — CCES — position and weather

sailwx.info

Track history (hours):
 
Tides and Currents Weather Stations Pressure Air Temp Water Temp Dewpoint Dewpoint Depression Visibility Wind Speed Wind Dir Waves Ship Positions

Esmeralda (Chile)

Last reported at 2015-Apr-27 11:22 UTC. Time now 2015-May-05 19:21 UTC.
Position S 33°02' W 071°38'.
Warning: this ship's position is 8 days out of date.

Length 113 m; draft 7 m.

Type: Military. MMSI: 725019006.

Date/timePositionNaut miles runAvg speedWind from/ knotsBaromVisibWave heightAir tempDewpointWater temp
2015-Apr-27 11:22S 33°02' W 071°38'0 0.0
2015-Apr-25 14:28S 33°02' W 071°38'0 0.0
2015-Apr-25 13:31S 33°02' W 071°38'0 0.0
2015-Apr-24 20:28S 33°02' W 071°38'0 0.0
2015-Apr-24 19:31S 33°02' W 071°38'0 0.0
2015-Apr-24 18:25S 33°02' W 071°38'0 0.0
2015-Apr-24 17:28S 33°02' W 071°38'0 0.0
2015-Apr-24 16:28S 33°02' W 071°38'0 0.0
2015-Apr-24 15:28S 33°02' W 071°38'0 0.0
2015-Apr-24 14:22S 33°02' W 071°38'0 0.0
2015-Apr-24 13:25S 33°02' W 071°38'0 0.0
2015-Apr-24 12:28S 33°02' W 071°38'0 0.0
2015-Apr-24 11:28S 33°02' W 071°38'0 0.0
2015-Apr-23 22:25S 33°02' W 071°38'0 0.0
2015-Apr-23 21:31S 33°02' W 071°38'0 0.0
2015-Apr-23 20:31S 33°02' W 071°38'0 0.0
2015-Apr-23 19:31S 33°02' W 071°38'0 0.1
2015-Apr-23 18:33S 33°02' W 071°38'4 3.6
2015-Apr-23 17:28S 32°58' W 071°38'5 5.0
2015-Apr-23 16:34S 32°53' W 071°37'1 1.4
2015-Apr-23 15:33S 32°55' W 071°37'2 2.0
2015-Apr-23 14:33S 32°53' W 071°37'0 0.4
2015-Apr-23 13:32S 32°53' W 071°37'2 0.1
2015-Apr-22 19:16S 32°55' W 071°38'5 6.4
2015-Apr-22 18:31S 32°51' W 071°39'1 1.1
2015-Apr-22 17:32S 32°52' W 071°39'2 1.9
2015-Apr-22 16:33S 32°54' W 071°39'1 1.1
2015-Apr-22 15:33S 32°55' W 071°39'4 3.5
2015-Apr-22 14:33S 32°51' W 071°41'3 1.5
2015-Apr-22 12:33S 32°53' W 071°38'6 0.3
2015-Apr-21 18:33S 32°58' W 071°38'2 0.9
2015-Apr-21 16:31S 32°56' W 071°37'4 4.0
2015-Apr-21 15:34S 32°53' W 071°37'2 1.8
2015-Apr-21 14:32S 32°54' W 071°38'1 0.7
2015-Apr-21 13:33S 32°55' W 071°39'2 0.1
2015-Apr-20 18:24S 32°57' W 071°39'4 4.5
2015-Apr-20 17:32S 32°54' W 071°42'3 2.9
2015-Apr-20 16:33S 32°51' W 071°42'8 8.1
2015-Apr-20 15:33S 32°57' W 071°35'  
Track history (hours):
 
Tides and Currents Weather Stations Pressure Air Temp Water Temp Dewpoint Dewpoint Depression Visibility Wind Speed Wind Dir Waves Ship Positions

Esmeralda (Chile)

Last reported at 2015-Apr-27 11:22 UTC. Time now 2015-May-05 19:21 UTC.
Position S 33°02' W 071°38'.
Warning: this ship's position is 8 days out of date.

Length 113 m; draft 7 m.

Type: Military. MMSI: 725019006.

Date/timePositionNaut miles runAvg speedWind from/ knotsBaromVisibWave heightAir tempDewpointWater temp
2015-Apr-27 11:22S 33°02' W 071°38'0 0.0
2015-Apr-25 14:28S 33°02' W 071°38'0 0.0
2015-Apr-25 13:31S 33°02' W 071°38'0 0.0
2015-Apr-24 20:28S 33°02' W 071°38'0 0.0
2015-Apr-24 19:31S 33°02' W 071°38'0 0.0
2015-Apr-24 18:25S 33°02' W 071°38'0 0.0
2015-Apr-24 17:28S 33°02' W 071°38'0 0.0
2015-Apr-24 16:28S 33°02' W 071°38'0 0.0
2015-Apr-24 15:28S 33°02' W 071°38'0 0.0
2015-Apr-24 14:22S 33°02' W 071°38'0 0.0
2015-Apr-24 13:25S 33°02' W 071°38'0 0.0
2015-Apr-24 12:28S 33°02' W 071°38'0 0.0
2015-Apr-24 11:28S 33°02' W 071°38'0 0.0
2015-Apr-23 22:25S 33°02' W 071°38'0 0.0
2015-Apr-23 21:31S 33°02' W 071°38'0 0.0
2015-Apr-23 20:31S 33°02' W 071°38'0 0.0
2015-Apr-23 19:31S 33°02' W 071°38'0 0.1
2015-Apr-23 18:33S 33°02' W 071°38'4 3.6
2015-Apr-23 17:28S 32°58' W 071°38'5 5.0
2015-Apr-23 16:34S 32°53' W 071°37'1 1.4
2015-Apr-23 15:33S 32°55' W 071°37'2 2.0
2015-Apr-23 14:33S 32°53' W 071°37'0 0.4
2015-Apr-23 13:32S 32°53' W 071°37'2 0.1
2015-Apr-22 19:16S 32°55' W 071°38'5 6.4
2015-Apr-22 18:31S 32°51' W 071°39'1 1.1
2015-Apr-22 17:32S 32°52' W 071°39'2 1.9
2015-Apr-22 16:33S 32°54' W 071°39'1 1.1
2015-Apr-22 15:33S 32°55' W 071°39'4 3.5
2015-Apr-22 14:33S 32°51' W 071°41'3 1.5
2015-Apr-22 12:33S 32°53' W 071°38'6 0.3
2015-Apr-21 18:33S 32°58' W 071°38'2 0.9
2015-Apr-21 16:31S 32°56' W 071°37'4 4.0
2015-Apr-21 15:34S 32°53' W 071°37'2 1.8
2015-Apr-21 14:32S 32°54' W 071°38'1 0.7
2015-Apr-21 13:33S 32°55' W 071°39'2 0.1
2015-Apr-20 18:24S 32°57' W 071°39'4 4.5
2015-Apr-20 17:32S 32°54' W 071°42'3 2.9
2015-Apr-20 16:33S 32°51' W 071°42'8 8.1
2015-Apr-20 15:33S 32°57' W 071°35'  

Dump ship's entire track history